Palatine, Illinois
Current Conditions -  °F | °C
As of 9:52 PM on Sunday 25 Jan 2015 (Local Time) from KPWK Reporting Station
Broken Clouds Broken Clouds  
Wind Chill: 16°   Ceiling: 2900
Heat Index: 25°   Visibility: 10mi
Dew Point: 15°   Wind: 9mph
Humidity: 66%   Direction: 40°NE
Pressure: 30.01"   Gusts: NA
Location:  42.11°N, 88.04°W
Report Text: KPWK 260352Z AUTO 04008KT 10SM BKN029 M04/M09 A3001 RMK AO2 SLP171 T10391094
Loading
Personal Weather Stations






























Interactive Weather Map New forecast layout! Learn more

10-Day Weather Forecast

Advertisements
Track Severe Weather on mobile